createdAt,value
2017-11-30T00:00:49.880Z,100755.34
2017-11-30T00:03:18.185Z,100757.48
2017-11-30T00:05:46.530Z,100754.30
2017-11-30T00:08:14.855Z,100747.97
2017-11-30T00:10:43.175Z,100745.06
2017-11-30T00:13:11.486Z,100740.31
2017-11-30T00:15:39.807Z,100745.37
2017-11-30T00:18:08.212Z,100745.94
2017-11-30T00:20:37.343Z,100733.20
2017-11-30T00:23:05.698Z,100729.06
2017-11-30T00:25:36.784Z,100730.84
2017-11-30T00:28:05.275Z,100737.16
2017-11-30T00:30:34.356Z,100736.14
2017-11-30T00:33:02.670Z,100729.16
2017-11-30T00:35:31.053Z,100719.78
2017-11-30T00:37:59.375Z,100728.94
2017-11-30T00:40:27.674Z,100727.44
2017-11-30T00:43:16.600Z,100728.63
2017-11-30T00:45:47.019Z,100721.28
2017-11-30T00:48:16.165Z,100717.39
2017-11-30T00:50:45.313Z,100722.25
2017-11-30T00:53:13.626Z,100730.72
2017-11-30T00:55:41.928Z,100733.68
2017-11-30T00:58:10.244Z,100731.89
2017-11-30T01:00:38.561Z,100706.80
2017-11-30T01:03:06.888Z,100695.19
2017-11-30T01:05:35.209Z,100695.29
2017-11-30T01:08:03.537Z,100689.62
2017-11-30T01:10:31.832Z,100693.05
2017-11-30T01:13:00.145Z,100681.76
2017-11-30T01:15:28.451Z,100685.67
2017-11-30T01:17:56.802Z,100678.79
2017-11-30T01:20:25.146Z,100681.14
2017-11-30T01:22:54.228Z,100689.55
2017-11-30T01:25:22.526Z,100698.33
2017-11-30T01:27:51.606Z,100696.91
2017-11-30T01:30:19.998Z,100712.77
2017-11-30T01:32:49.075Z,100711.53
2017-11-30T01:35:17.388Z,100722.37
2017-11-30T01:37:46.464Z,100720.09
2017-11-30T01:40:14.793Z,100718.52
2017-11-30T01:42:43.117Z,100709.83
2017-11-30T01:45:12.193Z,100702.95
2017-11-30T01:47:40.487Z,100698.24
2017-11-30T01:50:08.818Z,100696.49
2017-11-30T01:52:37.188Z,100689.48
2017-11-30T01:55:06.286Z,100697.83
2017-11-30T01:57:34.625Z,100698.43
2017-11-30T02:00:03.176Z,100702.38
2017-11-30T02:02:31.499Z,100697.34
2017-11-30T02:04:59.786Z,100697.09
2017-11-30T02:07:28.102Z,100688.40
2017-11-30T02:09:56.436Z,100695.92
2017-11-30T02:12:24.750Z,100697.33
2017-11-30T02:14:53.835Z,100697.58
2017-11-30T02:17:22.929Z,100704.20
2017-11-30T02:19:51.257Z,100705.92
2017-11-30T02:22:21.986Z,100710.02
2017-11-30T02:24:50.897Z,100705.09
2017-11-30T02:27:22.266Z,100707.09
2017-11-30T02:29:50.590Z,100709.23
2017-11-30T02:32:19.659Z,100706.17
2017-11-30T02:34:51.298Z,100704.36
2017-11-30T02:37:21.811Z,100702.88
2017-11-30T02:39:50.137Z,100694.34
2017-11-30T02:42:18.440Z,100701.66
2017-11-30T02:44:47.530Z,100704.98
2017-11-30T02:47:15.956Z,100699.52
2017-11-30T02:49:45.009Z,100696.28
2017-11-30T02:52:14.362Z,100690.11
2017-11-30T02:54:44.877Z,100693.91
2017-11-30T02:57:16.593Z,100687.08
2017-11-30T02:59:46.916Z,100676.56
2017-11-30T03:02:18.164Z,100666.05
2017-11-30T03:04:47.472Z,100665.36
2017-11-30T03:07:17.169Z,100664.06
2017-11-30T03:09:45.498Z,100662.08
2017-11-30T03:12:13.830Z,100660.78
2017-11-30T03:14:42.159Z,100648.83
2017-11-30T03:17:11.247Z,100647.82
2017-11-30T03:19:40.334Z,100644.48
2017-11-30T03:22:08.825Z,100648.06
2017-11-30T03:24:37.148Z,100646.19
2017-11-30T03:27:05.456Z,100638.92
2017-11-30T03:29:34.622Z,100639.70
2017-11-30T03:32:02.949Z,100638.14
2017-11-30T03:34:31.263Z,100636.75
2017-11-30T03:37:00.506Z,100635.83
2017-11-30T03:39:28.832Z,100634.77
2017-11-30T03:41:57.907Z,100637.16
2017-11-30T03:44:29.781Z,100631.20
2017-11-30T03:47:00.059Z,100621.41
2017-11-30T03:49:32.830Z,100624.34
2017-11-30T03:52:01.139Z,100612.17
2017-11-30T03:54:29.449Z,100611.84
2017-11-30T03:56:57.793Z,100616.06
2017-11-30T03:59:26.277Z,100609.91
2017-11-30T04:01:54.601Z,100610.91
2017-11-30T04:04:22.921Z,100618.69
2017-11-30T04:06:51.231Z,100623.07
2017-11-30T04:09:19.755Z,100615.38
2017-11-30T04:11:49.153Z,100620.09
2017-11-30T04:14:17.490Z,100604.32
2017-11-30T04:16:45.793Z,100605.12
2017-11-30T04:19:14.129Z,100602.73
2017-11-30T04:21:42.435Z,100605.74
2017-11-30T04:24:10.760Z,100606.33
2017-11-30T04:26:39.045Z,100598.84
2017-11-30T04:29:07.423Z,100602.43
2017-11-30T04:31:35.729Z,100594.61
2017-11-30T04:34:06.418Z,100591.02
2017-11-30T04:36:34.771Z,100590.69
2017-11-30T04:39:03.081Z,100581.44
2017-11-30T04:41:31.373Z,100585.50
2017-11-30T04:43:59.677Z,100588.39
2017-11-30T04:46:28.741Z,100569.52
2017-11-30T04:48:57.075Z,100572.48
2017-11-30T04:51:25.396Z,100567.25
2017-11-30T04:53:53.720Z,100571.52
2017-11-30T04:56:22.827Z,100561.30
2017-11-30T04:58:51.917Z,100558.22
2017-11-30T05:01:20.239Z,100561.52
2017-11-30T05:03:48.556Z,100556.30
2017-11-30T05:06:16.872Z,100561.39
2017-11-30T05:08:45.947Z,100559.59
2017-11-30T05:11:14.253Z,100557.18
2017-11-30T05:13:42.586Z,100565.28
2017-11-30T05:16:10.899Z,100572.39
2017-11-30T05:18:39.981Z,100572.95
2017-11-30T05:21:09.055Z,100580.55
2017-11-30T05:23:37.395Z,100586.20
2017-11-30T05:26:06.458Z,100595.28
2017-11-30T05:28:34.804Z,100595.84
2017-11-30T05:31:03.181Z,100593.95
2017-11-30T05:33:31.495Z,100586.25
2017-11-30T05:35:59.814Z,100586.19
2017-11-30T05:38:28.129Z,100585.52
2017-11-30T05:40:56.450Z,100583.28
2017-11-30T05:43:26.296Z,100573.26
2017-11-30T05:45:55.388Z,100567.28
2017-11-30T05:48:24.487Z,100567.82
2017-11-30T05:50:53.585Z,100558.75
2017-11-30T05:53:22.662Z,100556.25
2017-11-30T05:55:52.469Z,100555.38
2017-11-30T05:58:20.760Z,100551.58
2017-11-30T06:00:49.154Z,100549.42
2017-11-30T06:03:18.931Z,100556.08
2017-11-30T06:05:47.257Z,100560.31
2017-11-30T06:08:16.322Z,100559.30
2017-11-30T06:10:44.629Z,100550.10
2017-11-30T06:13:13.739Z,100555.00
2017-11-30T06:15:42.874Z,100550.09
2017-11-30T06:18:11.219Z,100553.45
2017-11-30T06:20:40.315Z,100543.08
2017-11-30T06:23:08.833Z,100539.84
2017-11-30T06:25:38.007Z,100541.02
2017-11-30T06:28:07.120Z,100543.16
2017-11-30T06:30:35.482Z,100538.91
2017-11-30T06:33:04.564Z,100537.09
2017-11-30T06:35:34.462Z,100539.84
2017-11-30T06:38:02.824Z,100542.21
2017-11-30T06:40:31.257Z,100544.00
2017-11-30T06:42:59.561Z,100539.45
2017-11-30T06:45:27.873Z,100541.44
2017-11-30T06:47:56.201Z,100535.48
2017-11-30T06:50:25.297Z,100540.77
2017-11-30T06:52:54.390Z,100544.41
2017-11-30T06:55:23.471Z,100547.38
2017-11-30T06:57:51.785Z,100546.27
2017-11-30T07:00:20.917Z,100547.61
2017-11-30T07:02:49.225Z,100548.33
2017-11-30T07:05:17.540Z,100548.80
2017-11-30T07:07:46.611Z,100552.75
2017-11-30T07:10:15.693Z,100554.90
2017-11-30T07:12:44.001Z,100546.17
2017-11-30T07:15:12.331Z,100553.77
2017-11-30T07:17:40.650Z,100550.97
2017-11-30T07:20:08.971Z,100556.47
2017-11-30T07:22:38.265Z,100561.02
2017-11-30T07:25:07.368Z,100572.59
2017-11-30T07:27:36.615Z,100582.73
2017-11-30T07:30:04.989Z,100559.37
2017-11-30T07:32:33.295Z,100552.45
2017-11-30T07:35:01.613Z,100553.91
2017-11-30T07:37:30.773Z,100549.45
2017-11-30T07:39:59.091Z,100554.47
2017-11-30T07:42:28.165Z,100556.09
2017-11-30T07:44:56.475Z,100554.14
2017-11-30T07:47:25.564Z,100553.34
2017-11-30T07:49:54.643Z,100551.17
2017-11-30T07:52:22.956Z,100553.84
2017-11-30T07:54:52.184Z,100545.80
2017-11-30T07:57:20.484Z,100547.66
2017-11-30T07:59:48.791Z,100549.44
2017-11-30T08:02:18.634Z,100542.10
2017-11-30T08:04:47.703Z,100546.50
2017-11-30T08:07:16.029Z,100541.42
2017-11-30T08:09:44.375Z,100547.97
2017-11-30T08:12:12.690Z,100543.89
2017-11-30T08:14:41.037Z,100544.72
2017-11-30T08:17:10.123Z,100540.42
2017-11-30T08:19:38.520Z,100536.38
2017-11-30T08:22:07.599Z,100553.84
2017-11-30T08:24:35.901Z,100550.52
2017-11-30T08:27:04.270Z,100552.16
2017-11-30T08:29:33.417Z,100543.31
2017-11-30T08:32:01.738Z,100542.83
2017-11-30T08:34:30.122Z,100541.19
2017-11-30T08:36:59.190Z,100547.45
2017-11-30T08:39:27.528Z,100548.67
2017-11-30T08:41:55.840Z,100546.06
2017-11-30T08:44:24.141Z,100550.05
2017-11-30T08:46:52.539Z,100548.10
2017-11-30T08:49:20.842Z,100542.22
2017-11-30T08:51:49.943Z,100543.36
2017-11-30T08:54:19.774Z,100531.87
2017-11-30T08:56:48.872Z,100529.96
2017-11-30T08:59:18.105Z,100527.08
2017-11-30T09:01:46.429Z,100525.66
2017-11-30T09:04:14.781Z,100524.11
2017-11-30T09:06:43.220Z,100530.31
2017-11-30T09:09:12.353Z,100531.84
2017-11-30T09:11:40.673Z,100536.23
2017-11-30T09:14:08.990Z,100531.72
2017-11-30T09:16:38.074Z,100525.00
2017-11-30T09:19:06.397Z,100527.34
2017-11-30T09:21:34.739Z,100522.71
2017-11-30T09:24:03.875Z,100523.08
2017-11-30T09:26:32.200Z,100519.78
2017-11-30T09:29:02.014Z,100525.09
2017-11-30T09:31:30.347Z,100527.70
2017-11-30T09:33:58.682Z,100529.30
2017-11-30T09:36:28.523Z,100531.39
2017-11-30T09:38:57.607Z,100534.34
2017-11-30T09:41:26.697Z,100527.18
2017-11-30T09:43:55.086Z,100518.03
2017-11-30T09:46:23.444Z,100512.86
2017-11-30T09:48:51.762Z,100511.02
2017-11-30T09:51:20.884Z,100504.70
2017-11-30T09:53:49.176Z,100506.53
2017-11-30T09:56:17.502Z,100502.24
2017-11-30T09:58:47.305Z,100505.08
2017-11-30T10:01:15.627Z,100502.92
2017-11-30T10:03:44.710Z,100505.17
2017-11-30T10:06:13.762Z,100508.09
2017-11-30T10:08:42.086Z,100504.76
2017-11-30T10:11:11.183Z,100500.31
2017-11-30T10:13:40.298Z,100506.28
2017-11-30T10:16:08.623Z,100504.49
2017-11-30T10:18:36.938Z,100496.94
2017-11-30T10:21:05.244Z,100498.12
2017-11-30T10:23:34.355Z,100494.14
2017-11-30T10:26:02.676Z,100488.73
2017-11-30T10:28:30.977Z,100488.56
2017-11-30T10:31:00.069Z,100494.03
2017-11-30T10:33:28.411Z,100484.80
2017-11-30T10:35:56.822Z,100494.19
2017-11-30T10:38:25.131Z,100493.23
2017-11-30T10:40:54.209Z,100492.41
2017-11-30T10:43:23.310Z,100487.64
2017-11-30T10:45:52.418Z,100488.49
2017-11-30T10:48:21.492Z,100489.02
2017-11-30T10:50:49.838Z,100482.70
2017-11-30T10:53:18.156Z,100480.50
2017-11-30T10:55:47.675Z,100473.91
2017-11-30T10:58:15.988Z,100473.09
2017-11-30T11:00:45.083Z,100466.32
2017-11-30T11:03:14.149Z,100473.38
2017-11-30T11:05:43.237Z,100463.47
2017-11-30T11:08:11.628Z,100459.14
2017-11-30T11:10:39.966Z,100456.06
2017-11-30T11:13:08.297Z,100455.72
2017-11-30T11:15:36.642Z,100451.92
2017-11-30T11:18:04.949Z,100447.52
2017-11-30T11:20:33.285Z,100442.02
2017-11-30T11:23:01.590Z,100447.56
2017-11-30T11:25:29.900Z,100446.00
2017-11-30T11:27:58.208Z,100456.55
2017-11-30T11:30:26.521Z,100452.97
2017-11-30T11:32:54.836Z,100451.83
2017-11-30T11:35:24.679Z,100453.89
2017-11-30T11:37:53.781Z,100447.36
2017-11-30T11:40:22.888Z,100446.80
2017-11-30T11:42:51.229Z,100446.67
2017-11-30T11:45:19.558Z,100447.23
2017-11-30T11:47:47.880Z,100449.11
2017-11-30T11:50:16.192Z,100454.14
2017-11-30T11:52:45.282Z,100454.11
2017-11-30T11:55:13.584Z,100451.39
2017-11-30T11:57:42.655Z,100454.52
2017-11-30T12:00:11.735Z,100462.97
2017-11-30T12:02:40.087Z,100463.06
2017-11-30T12:05:08.419Z,100461.91
2017-11-30T12:07:36.726Z,100464.35
2017-11-30T12:10:05.058Z,100458.12
2017-11-30T12:12:33.492Z,100464.97
2017-11-30T12:15:01.800Z,100461.53
2017-11-30T12:17:30.113Z,100464.33
2017-11-30T12:19:59.184Z,100467.98
2017-11-30T12:22:27.497Z,100466.66
2017-11-30T12:24:55.813Z,100465.98
2017-11-30T12:27:24.900Z,100463.92
2017-11-30T12:29:53.355Z,100470.34
2017-11-30T12:32:21.693Z,100467.48
2017-11-30T12:34:50.005Z,100470.23
2017-11-30T12:37:18.323Z,100466.34
2017-11-30T12:39:47.435Z,100471.63
2017-11-30T12:42:16.585Z,100469.39
2017-11-30T12:44:44.905Z,100468.19
2017-11-30T12:47:14.060Z,100464.25
2017-11-30T12:49:42.374Z,100465.77
2017-11-30T12:52:10.854Z,100460.61
2017-11-30T12:54:39.920Z,100461.27
2017-11-30T12:59:36.552Z,100459.19
2017-11-30T13:02:04.871Z,100453.52
2017-11-30T13:04:33.216Z,100455.23
2017-11-30T13:07:01.530Z,100450.65
2017-11-30T13:09:29.839Z,100442.88
2017-11-30T13:11:58.198Z,100445.75
2017-11-30T13:14:26.846Z,100448.10
2017-11-30T13:16:55.162Z,100450.20
2017-11-30T13:19:23.473Z,100445.30
2017-11-30T13:21:51.799Z,100445.67
2017-11-30T13:24:20.122Z,100446.35
2017-11-30T13:26:49.190Z,100434.61
2017-11-30T13:29:17.521Z,100442.16
2017-11-30T13:31:46.588Z,100433.67
2017-11-30T13:34:14.906Z,100430.66
2017-11-30T13:36:43.964Z,100425.98
2017-11-30T13:39:12.384Z,100422.38
2017-11-30T13:41:41.524Z,100417.81
2017-11-30T13:44:09.912Z,100417.75
2017-11-30T13:46:38.221Z,100417.88
2017-11-30T13:49:06.533Z,100417.85
2017-11-30T13:51:35.588Z,100422.16
2017-11-30T13:54:03.904Z,100429.91
2017-11-30T13:56:32.992Z,100424.24
2017-11-30T13:59:01.292Z,100426.68
2017-11-30T14:01:30.378Z,100426.73
2017-11-30T14:03:59.477Z,100427.15
2017-11-30T14:06:28.588Z,100424.97
2017-11-30T14:08:57.748Z,100435.97
2017-11-30T14:11:26.057Z,100436.09
2017-11-30T14:13:55.134Z,100434.23
2017-11-30T14:16:24.233Z,100431.48
2017-11-30T14:18:52.554Z,100434.80
2017-11-30T14:21:20.883Z,100437.52
2017-11-30T14:23:51.610Z,100441.78
2017-11-30T14:26:19.942Z,100440.73
2017-11-30T14:28:49.020Z,100442.29
2017-11-30T14:31:17.398Z,100443.33
2017-11-30T14:33:45.786Z,100446.91
2017-11-30T14:36:14.896Z,100448.64
2017-11-30T14:38:43.979Z,100450.14
2017-11-30T14:41:12.322Z,100456.50
2017-11-30T14:43:40.758Z,100457.99
2017-11-30T14:46:09.834Z,100458.63
2017-11-30T14:48:38.910Z,100467.45
2017-11-30T14:51:07.250Z,100472.06
2017-11-30T14:53:36.324Z,100468.83
2017-11-30T14:56:05.394Z,100476.52
2017-11-30T14:58:33.693Z,100483.97
2017-11-30T15:01:02.064Z,100483.50
2017-11-30T15:03:30.374Z,100493.97
2017-11-30T15:05:59.459Z,100494.89
2017-11-30T15:08:27.778Z,100488.84
2017-11-30T15:10:56.104Z,100499.22
2017-11-30T15:13:25.926Z,100509.27
2017-11-30T15:15:54.324Z,100507.73
2017-11-30T15:18:25.037Z,100504.98
2017-11-30T15:20:53.366Z,100501.94
2017-11-30T15:23:21.698Z,100493.28
2017-11-30T15:25:50.041Z,100493.94
2017-11-30T15:28:18.414Z,100488.11
2017-11-30T15:30:46.786Z,100485.83
2017-11-30T15:33:15.105Z,100488.37
2017-11-30T15:35:43.429Z,100478.78
2017-11-30T15:38:12.504Z,100484.69
2017-11-30T15:40:40.868Z,100483.27
2017-11-30T15:43:09.194Z,100481.20
2017-11-30T15:45:38.280Z,100486.49
2017-11-30T15:48:07.369Z,100487.34
2017-11-30T15:50:35.741Z,100490.48
2017-11-30T15:53:04.060Z,100497.13
2017-11-30T15:55:33.134Z,100498.53
2017-11-30T15:58:02.216Z,100500.38
2017-11-30T16:00:30.532Z,100496.62
2017-11-30T16:02:59.612Z,100505.87
2017-11-30T16:05:27.932Z,100501.20
2017-11-30T16:07:56.263Z,100502.22
2017-11-30T16:10:24.596Z,100503.71
2017-11-30T16:12:53.760Z,100511.50
2017-11-30T16:15:22.944Z,100509.59
2017-11-30T16:17:51.280Z,100506.69
2017-11-30T16:20:19.589Z,100503.78
2017-11-30T16:22:48.714Z,100513.33
2017-11-30T16:25:17.796Z,100512.89
2017-11-30T16:27:46.972Z,100510.73
2017-11-30T16:30:15.471Z,100516.86
2017-11-30T16:32:43.790Z,100520.77
2017-11-30T16:35:12.121Z,100518.27
2017-11-30T16:37:41.202Z,100522.94
2017-11-30T16:40:10.332Z,100525.32
2017-11-30T16:42:38.646Z,100521.31
2017-11-30T16:45:07.766Z,100535.34
2017-11-30T16:47:36.184Z,100532.83
2017-11-30T16:50:04.752Z,100533.78
2017-11-30T16:52:33.136Z,100532.98
2017-11-30T16:55:01.744Z,100533.73
2017-11-30T16:57:30.088Z,100538.08
2017-11-30T16:59:58.410Z,100540.22
2017-11-30T17:02:26.733Z,100551.70
2017-11-30T17:04:56.132Z,100545.05
2017-11-30T17:07:25.350Z,100552.77
2017-11-30T17:09:53.706Z,100550.53
2017-11-30T17:12:22.798Z,100545.28
2017-11-30T17:14:51.104Z,100549.24
2017-11-30T17:17:20.740Z,100549.48
2017-11-30T17:19:49.077Z,100550.72
2017-11-30T17:22:18.197Z,100555.70
2017-11-30T17:24:47.284Z,100553.30
2017-11-30T17:27:16.360Z,100560.81
2017-11-30T17:29:44.858Z,100557.84
2017-11-30T17:32:13.180Z,100561.04
2017-11-30T17:34:41.488Z,100546.52
2017-11-30T17:37:21.252Z,100551.14
2017-11-30T17:39:52.168Z,100558.08
2017-11-30T17:42:28.936Z,100550.56
2017-11-30T17:44:57.329Z,100566.91
2017-11-30T17:47:25.677Z,100567.76
2017-11-30T17:49:54.016Z,100569.16
2017-11-30T17:52:23.145Z,100575.01
2017-11-30T17:54:52.230Z,100575.61
2017-11-30T17:57:21.348Z,100576.67
2017-11-30T17:59:49.664Z,100578.41
2017-11-30T18:02:18.700Z,100573.96
2017-11-30T18:04:47.801Z,100570.73
2017-11-30T18:07:16.937Z,100576.59
2017-11-30T18:09:45.282Z,100581.63
2017-11-30T18:12:13.556Z,100588.38
2017-11-30T18:14:42.745Z,100589.28
2017-11-30T18:17:11.840Z,100590.80
2017-11-30T18:19:40.297Z,100596.80
2017-11-30T18:22:09.420Z,100594.81
2017-11-30T18:24:37.739Z,100589.03
2017-11-30T18:27:06.068Z,100596.14
2017-11-30T18:29:34.372Z,100599.84
2017-11-30T18:32:03.548Z,100595.41
2017-11-30T18:34:31.890Z,100598.64
2017-11-30T18:37:00.212Z,100598.22
2017-11-30T18:39:28.653Z,100599.11
2017-11-30T18:41:57.181Z,100588.97
2017-11-30T18:44:25.582Z,100591.52
2017-11-30T18:46:53.914Z,100590.28
2017-11-30T18:49:22.223Z,100594.00
2017-11-30T18:51:50.535Z,100595.41
2017-11-30T18:54:18.984Z,100591.12
2017-11-30T18:56:47.402Z,100592.59
2017-11-30T18:59:16.486Z,100598.12
2017-11-30T19:01:44.847Z,100600.45
2017-11-30T19:04:13.230Z,100603.34
2017-11-30T19:06:41.570Z,100601.19
2017-11-30T19:09:11.840Z,100602.91
2017-11-30T19:11:40.245Z,100611.91
2017-11-30T19:14:08.552Z,100603.33
2017-11-30T19:16:37.785Z,100609.02
2017-11-30T19:19:06.123Z,100594.83
2017-11-30T19:21:34.426Z,100602.34
2017-11-30T19:24:02.758Z,100610.84
2017-11-30T19:26:31.682Z,100608.20
2017-11-30T19:29:00.834Z,100608.20
2017-11-30T19:31:29.198Z,100613.06
2017-11-30T19:33:57.588Z,100607.13
2017-11-30T19:36:25.888Z,100605.39
2017-11-30T19:38:54.223Z,100617.94
2017-11-30T19:41:23.357Z,100619.98
2017-11-30T19:43:51.682Z,100619.08
2017-11-30T19:46:20.794Z,100616.28
2017-11-30T19:48:49.895Z,100614.30
2017-11-30T19:51:19.047Z,100615.97
2017-11-30T19:53:47.347Z,100614.48
2017-11-30T19:56:15.696Z,100618.03
2017-11-30T19:58:44.363Z,100619.36
2017-11-30T20:01:12.708Z,100621.33
2017-11-30T20:03:41.039Z,100627.02
2017-11-30T20:06:09.356Z,100631.07
2017-11-30T20:08:37.694Z,100632.53
2017-11-30T20:11:06.015Z,100632.78
2017-11-30T20:13:35.117Z,100636.81
2017-11-30T20:16:03.484Z,100634.02
2017-11-30T20:18:31.813Z,100642.94
2017-11-30T20:21:00.930Z,100639.06
2017-11-30T20:23:29.240Z,100638.73
2017-11-30T20:25:57.552Z,100636.69
2017-11-30T20:28:26.574Z,100642.88
2017-11-30T20:30:54.845Z,100639.47
2017-11-30T20:33:23.938Z,100638.66
2017-11-30T20:35:53.217Z,100648.07
2017-11-30T20:38:21.560Z,100640.73
2017-11-30T20:40:49.860Z,100641.89
2017-11-30T20:43:18.161Z,100645.85
2017-11-30T20:45:46.499Z,100650.48
2017-11-30T20:48:14.835Z,100647.84
2017-11-30T20:50:43.140Z,100653.50
2017-11-30T20:53:12.213Z,100651.69
2017-11-30T20:55:40.558Z,100654.84
2017-11-30T20:58:08.867Z,100656.33
2017-11-30T21:00:37.205Z,100660.55
2017-11-30T21:03:05.509Z,100657.25
2017-11-30T21:05:33.831Z,100661.55
2017-11-30T21:08:02.150Z,100655.98
2017-11-30T21:10:31.311Z,100661.59
2017-11-30T21:13:00.406Z,100666.97
2017-11-30T21:15:29.497Z,100668.22
2017-11-30T21:17:58.403Z,100678.61
2017-11-30T21:20:26.714Z,100679.77
2017-11-30T21:22:55.023Z,100689.92
2017-11-30T21:25:25.114Z,100692.34
2017-11-30T21:27:53.449Z,100693.81
2017-11-30T21:30:21.781Z,100692.64
2017-11-30T21:32:50.124Z,100694.63
2017-11-30T21:35:19.198Z,100696.35
2017-11-30T21:37:48.071Z,100706.10
2017-11-30T21:40:16.379Z,100699.23
2017-11-30T21:42:44.688Z,100707.55
2017-11-30T21:45:13.771Z,100706.16
2017-11-30T21:47:42.078Z,100710.28
2017-11-30T21:50:10.407Z,100716.30
2017-11-30T21:52:38.725Z,100714.95
2017-11-30T21:55:07.078Z,100718.16
2017-11-30T21:57:35.390Z,100719.73
2017-11-30T22:00:04.495Z,100725.52
2017-11-30T22:02:33.563Z,100728.72
2017-11-30T22:05:01.889Z,100734.23
2017-11-30T22:07:30.212Z,100736.31
2017-11-30T22:09:58.543Z,100735.48
2017-11-30T22:12:27.607Z,100738.53
2017-11-30T22:14:55.920Z,100743.75
2017-11-30T22:17:24.993Z,100752.47
2017-11-30T22:19:54.174Z,100750.22
2017-11-30T22:22:22.467Z,100744.03
2017-11-30T22:24:50.831Z,100753.02
2017-11-30T22:27:19.154Z,100759.85
2017-11-30T22:29:48.330Z,100760.50
2017-11-30T22:32:16.666Z,100760.23
2017-11-30T22:34:45.061Z,100761.14
2017-11-30T22:37:13.403Z,100765.41
2017-11-30T22:39:43.366Z,100766.58
2017-11-30T22:42:11.687Z,100766.50
2017-11-30T22:44:40.767Z,100773.75
2017-11-30T22:47:09.089Z,100774.47
2017-11-30T22:49:37.413Z,100781.70
2017-11-30T22:52:05.718Z,100779.15
2017-11-30T22:54:34.864Z,100786.70
2017-11-30T22:57:03.175Z,100793.63
2017-11-30T22:59:32.297Z,100800.53
2017-11-30T23:02:00.625Z,100800.75
2017-11-30T23:04:28.939Z,100804.30
2017-11-30T23:06:57.245Z,100811.30
2017-11-30T23:09:25.637Z,100813.23
2017-11-30T23:11:53.979Z,100819.41
2017-11-30T23:14:22.335Z,100816.77
2017-11-30T23:16:50.641Z,100828.95
2017-11-30T23:19:18.927Z,100816.17
2017-11-30T23:21:47.227Z,100816.81
2017-11-30T23:24:15.558Z,100818.12
2017-11-30T23:26:43.868Z,100825.85
2017-11-30T23:29:12.204Z,100827.02
2017-11-30T23:31:40.549Z,100835.61
2017-11-30T23:34:08.889Z,100834.30
2017-11-30T23:36:37.192Z,100841.95
2017-11-30T23:39:05.798Z,100842.44
2017-11-30T23:41:34.108Z,100839.72
2017-11-30T23:44:03.196Z,100840.89
2017-11-30T23:46:31.518Z,100847.34
2017-11-30T23:48:59.855Z,100842.55
2017-11-30T23:51:28.176Z,100849.22
2017-11-30T23:53:56.501Z,100844.44
2017-11-30T23:56:24.820Z,100853.25
2017-11-30T23:58:53.155Z,100853.33
